Time;durP1;ratioP1;P1;durP2;ratioP2;P2;SDS_P1;SDS_P2;PMS_P1;PMS_P2;Temp;Humidity;BMP_temperature;BMP_pressure;BME280_temperature;BME280_humidity;BME280_pressure;Samples;Min_cycle;Max_cycle;Signal;HPM_P1;HPM_P2
2023/12/31 00:01:51;;;;;;;149.52;91.82;;;5.30;99.90;;;;;;5081957;28;20111;-78
2023/12/31 00:04:18;;;;;;;150.20;89.50;;;5.00;99.90;;;;;;5081414;28;20106;-78
2023/12/31 00:06:46;;;;;;;155.52;90.78;;;5.00;99.90;;;;;;5075520;28;20387;-77
2023/12/31 00:09:13;;;;;;;158.60;95.07;;;5.10;99.90;;;;;;5079079;28;20033;-75
2023/12/31 00:11:40;;;;;;;172.07;105.95;;;5.20;99.90;;;;;;5081266;28;20050;-75
2023/12/31 00:14:07;;;;;;;200.95;115.38;;;5.20;99.90;;;;;;5077877;28;20036;-73
2023/12/31 00:16:34;;;;;;;193.55;116.40;;;5.10;99.90;;;;;;5080737;28;20399;-74
2023/12/31 00:19:02;;;;;;;180.32;109.13;;;5.10;99.90;;;;;;5083029;28;20024;-75
2023/12/31 00:21:30;;;;;;;181.63;109.40;;;5.10;99.90;;;;;;5080090;28;20108;-73
2023/12/31 00:23:57;;;;;;;169.18;104.70;;;5.10;99.90;;;;;;5078952;28;20032;-68
2023/12/31 00:26:24;;;;;;;179.18;105.00;;;5.00;99.90;;;;;;5069445;28;20036;-76
2023/12/31 00:28:51;;;;;;;161.90;100.32;;;4.90;99.90;;;;;;5079810;28;20471;-74
2023/12/31 00:31:18;;;;;;;166.75;99.50;;;4.90;99.90;;;;;;5077290;28;20032;-71
2023/12/31 00:33:46;;;;;;;176.90;103.32;;;4.90;99.90;;;;;;5077918;28;20116;-74
2023/12/31 00:36:13;;;;;;;162.55;97.18;;;4.80;99.90;;;;;;5085489;28;20059;-71
2023/12/31 00:38:41;;;;;;;147.73;84.85;;;4.90;99.90;;;;;;5079724;28;20120;-69
2023/12/31 00:41:08;;;;;;;122.72;77.82;;;5.00;99.90;;;;;;5080498;28;20034;-72
2023/12/31 00:43:36;;;;;;;130.18;74.93;;;4.90;99.90;;;;;;5078493;28;20090;-71
2023/12/31 00:46:03;;;;;;;111.07;69.20;;;4.90;99.90;;;;;;5078943;28;20348;-75
2023/12/31 00:48:30;;;;;;;121.35;74.75;;;4.90;99.90;;;;;;5079735;28;20064;-74
2023/12/31 00:51:01;;;;;;;125.32;72.57;;;4.80;99.90;;;;;;5081505;28;20044;-66
2023/12/31 00:53:28;;;;;;;;;;;4.80;99.90;;;;;;5081573;28;20176;-65
2023/12/31 00:55:55;;;;;;;130.77;74.95;;;5.20;99.90;;;;;;5076100;28;20387;-72
2023/12/31 00:58:22;;;;;;;123.93;73.38;;;5.20;99.90;;;;;;5080758;28;20474;-73
2023/12/31 01:00:50;;;;;;;123.63;73.95;;;5.00;99.90;;;;;;5081710;28;20043;-68
2023/12/31 01:03:17;;;;;;;121.65;75.63;;;4.90;99.90;;;;;;5080758;28;20052;-71
2023/12/31 01:05:45;;;;;;;114.53;70.15;;;4.90;99.90;;;;;;5075610;28;20056;-72
2023/12/31 01:08:12;;;;;;;117.20;70.22;;;5.00;99.90;;;;;;5081348;28;20716;-72
2023/12/31 01:10:39;;;;;;;122.63;74.40;;;5.00;99.90;;;;;;5078362;28;20051;-68
2023/12/31 01:13:07;;;;;;;123.93;73.65;;;5.00;99.90;;;;;;5078956;28;20032;-66
2023/12/31 01:15:34;;;;;;;118.10;71.95;;;5.10;99.90;;;;;;5077283;28;20047;-73
2023/12/31 01:18:01;;;;;;;126.35;75.30;;;5.10;99.90;;;;;;5078001;28;20063;-75
2023/12/31 01:20:29;;;;;;;125.38;75.63;;;5.00;99.90;;;;;;5078444;28;20039;-71
2023/12/31 01:22:56;;;;;;;125.43;74.55;;;4.90;99.90;;;;;;5079871;28;20054;-69
2023/12/31 01:25:23;;;;;;;122.55;73.18;;;4.90;99.90;;;;;;5079656;28;20111;-75
2023/12/31 01:27:53;;;;;;;121.32;74.97;;;4.80;99.90;;;;;;5080907;28;20036;-75
2023/12/31 01:30:22;;;;;;;125.85;74.43;;;4.80;99.90;;;;;;5081486;28;20024;-74
2023/12/31 01:32:50;;;;;;;119.40;72.75;;;4.90;99.90;;;;;;5078196;28;20496;-73
2023/12/31 01:35:18;;;;;;;124.95;77.68;;;4.90;99.90;;;;;;5079671;28;20116;-75
2023/12/31 01:37:46;;;;;;;124.88;74.60;;;4.90;99.90;;;;;;5081265;28;20471;-74
2023/12/31 01:40:13;;;;;;;126.07;76.22;;;4.80;99.90;;;;;;5079096;28;20024;-74
2023/12/31 01:42:41;;;;;;;119.97;73.70;;;4.80;99.90;;;;;;5079359;28;20044;-74
2023/12/31 01:45:08;;;;;;;129.18;76.18;;;4.80;99.90;;;;;;5074816;28;20348;-73
2023/12/31 01:47:37;;;;;;;132.35;76.15;;;4.70;99.90;;;;;;5079023;28;20403;-69
2023/12/31 01:50:06;;;;;;;128.63;77.60;;;4.60;99.90;;;;;;5079194;28;20387;-72
2023/12/31 01:52:34;;;;;;;123.82;74.32;;;4.60;99.90;;;;;;5079683;28;20067;-73
2023/12/31 01:55:04;;;;;;;114.93;73.82;;;4.70;99.90;;;;;;5081955;28;20059;-70
2023/12/31 01:57:35;;;;;;;120.68;72.03;;;4.70;99.90;;;;;;5079385;28;20033;-72
2023/12/31 02:00:06;;;;;;;115.63;70.07;;;4.80;99.90;;;;;;5079869;28;20135;-74
2023/12/31 02:02:33;;;;;;;121.93;71.57;;;4.80;99.90;;;;;;5077970;28;20128;-68
2023/12/31 02:05:01;;;;;;;123.00;75.13;;;4.60;99.90;;;;;;5079360;28;20047;-75
2023/12/31 02:07:28;;;;;;;115.45;73.72;;;4.70;99.90;;;;;;5081087;28;20111;-72
2023/12/31 02:09:56;;;;;;;119.28;73.07;;;4.70;99.90;;;;;;5097099;28;20042;-68
2023/12/31 02:12:23;;;;;;;131.25;73.57;;;4.80;99.90;;;;;;5078295;28;20036;-73
2023/12/31 02:14:51;;;;;;;119.63;71.78;;;4.70;99.90;;;;;;5079509;28;20064;-68
2023/12/31 02:17:18;;;;;;;131.23;73.60;;;4.60;99.90;;;;;;5080319;28;20112;-71
2023/12/31 02:19:45;;;;;;;130.65;75.80;;;4.60;99.90;;;;;;5077921;28;20036;-73
2023/12/31 02:22:13;;;;;;;130.77;76.53;;;4.70;99.90;;;;;;5078662;28;20067;-75
2023/12/31 02:24:53;;;;;;;123.00;74.65;;;4.70;99.90;;;;;;5080686;28;20036;-72
2023/12/31 02:27:20;;;;;;;125.63;76.22;;;4.80;99.90;;;;;;5075797;28;20492;-68
2023/12/31 02:29:48;;;;;;;127.40;75.22;;;4.80;99.90;;;;;;5078614;28;20429;-70
2023/12/31 02:32:15;;;;;;;129.52;76.30;;;4.70;99.90;;;;;;5077832;28;20115;-72
2023/12/31 02:34:45;;;;;;;127.70;75.38;;;4.70;99.90;;;;;;5076801;28;20608;-67
2023/12/31 02:37:30;;;;;;;124.00;76.13;;;4.70;99.90;;;;;;5079673;28;20467;-73
2023/12/31 02:39:57;;;;;;;127.53;75.88;;;4.60;99.90;;;;;;5079249;28;20039;-73
2023/12/31 02:42:25;;;;;;;127.28;75.55;;;4.50;99.90;;;;;;5079462;28;20082;-73
2023/12/31 02:44:52;;;;;;;124.20;75.60;;;4.50;99.90;;;;;;5083539;28;20062;-73
2023/12/31 02:47:19;;;;;;;134.35;80.47;;;4.60;99.90;;;;;;5082302;28;20067;-70
2023/12/31 02:49:46;;;;;;;128.73;79.40;;;4.40;99.90;;;;;;5083502;28;20103;-74
2023/12/31 02:52:15;;;;;;;130.43;81.85;;;4.40;99.90;;;;;;5098628;28;20041;-73
2023/12/31 02:54:43;;;;;;;134.77;83.22;;;4.20;99.90;;;;;;5087072;28;20036;-73
2023/12/31 02:57:10;;;;;;;133.35;80.68;;;4.20;99.90;;;;;;5077563;28;20158;-73
2023/12/31 02:59:38;;;;;;;133.95;78.78;;;4.30;99.90;;;;;;5083852;28;20036;-74
2023/12/31 03:02:05;;;;;;;137.60;82.47;;;4.30;99.90;;;;;;5084617;28;20363;-73
2023/12/31 03:04:32;;;;;;;143.05;80.75;;;4.30;99.90;;;;;;5080435;28;20595;-68
2023/12/31 03:06:59;;;;;;;134.85;78.10;;;4.30;99.90;;;;;;5082534;28;20064;-71
2023/12/31 03:09:27;;;;;;;130.40;79.70;;;4.10;99.90;;;;;;5084543;28;20040;-74
2023/12/31 03:11:54;;;;;;;139.15;81.78;;;4.20;99.90;;;;;;5082514;28;20468;-70
2023/12/31 03:14:21;;;;;;;136.52;78.88;;;4.10;99.90;;;;;;5082976;28;20040;-74
2023/12/31 03:16:48;;;;;;;136.77;82.53;;;4.20;99.90;;;;;;5080345;28;20068;-73
2023/12/31 03:19:17;;;;;;;125.82;79.05;;;4.00;99.90;;;;;;5084997;28;20421;-69
2023/12/31 03:21:44;;;;;;;131.80;80.82;;;4.00;99.90;;;;;;5079825;28;20402;-71
2023/12/31 03:24:11;;;;;;;126.47;81.63;;;4.00;99.90;;;;;;5076950;28;20109;-71
2023/12/31 03:26:39;;;;;;;129.00;85.85;;;3.70;99.90;;;;;;5077272;28;20035;-72
2023/12/31 03:29:06;;;;;;;137.95;89.75;;;3.80;99.90;;;;;;5082938;28;20403;-72
2023/12/31 03:31:33;;;;;;;140.70;88.90;;;3.80;99.90;;;;;;5083067;28;20044;-67
2023/12/31 03:34:00;;;;;;;137.10;87.63;;;3.80;99.90;;;;;;5081766;28;20042;-67
2023/12/31 03:36:28;;;;;;;137.60;89.50;;;3.80;99.90;;;;;;5081241;28;20035;-69
2023/12/31 03:38:55;;;;;;;141.20;85.13;;;3.90;99.90;;;;;;5084988;28;20038;-67
2023/12/31 03:41:22;;;;;;;131.02;84.95;;;3.80;99.90;;;;;;5082885;28;20055;-70
2023/12/31 03:43:50;;;;;;;128.13;85.00;;;3.80;99.90;;;;;;5082516;28;20032;-69
2023/12/31 03:46:17;;;;;;;126.53;83.45;;;3.80;99.90;;;;;;5083116;28;20032;-71
2023/12/31 03:48:44;;;;;;;138.88;87.18;;;3.80;99.90;;;;;;5078512;28;20467;-72
2023/12/31 03:51:12;;;;;;;141.10;85.82;;;3.80;99.90;;;;;;5077692;28;20037;-68
2023/12/31 03:53:41;;;;;;;135.90;86.38;;;3.90;99.90;;;;;;5080549;28;20044;-70
2023/12/31 03:56:09;;;;;;;144.32;87.28;;;3.90;99.90;;;;;;5074194;28;20039;-69
2023/12/31 03:58:37;;;;;;;139.68;86.10;;;4.00;99.90;;;;;;5081395;28;20037;-72
2023/12/31 04:01:05;;;;;;;139.95;82.30;;;4.00;99.90;;;;;;5083544;28;20114;-72
2023/12/31 04:03:32;;;;;;;131.82;83.25;;;3.80;99.90;;;;;;5080923;28;20036;-70
2023/12/31 04:05:59;;;;;;;133.88;82.57;;;3.80;99.90;;;;;;5080086;28;20064;-72
2023/12/31 04:08:27;;;;;;;133.45;84.38;;;3.80;99.90;;;;;;5081634;28;20086;-68
2023/12/31 04:10:54;;;;;;;135.45;86.53;;;3.90;99.90;;;;;;5078647;28;20545;-72
2023/12/31 04:13:22;;;;;;;137.52;84.00;;;3.90;99.90;;;;;;5073608;28;20032;-71
2023/12/31 04:15:51;;;;;;;136.13;85.80;;;3.90;99.90;;;;;;5082931;28;20040;-71
2023/12/31 04:18:18;;;;;;;126.15;82.13;;;3.90;99.90;;;;;;5081014;28;20060;-72
2023/12/31 04:20:46;;;;;;;136.60;84.80;;;3.80;99.90;;;;;;5080887;28;20036;-72
2023/12/31 04:23:14;;;;;;;124.90;80.63;;;3.80;99.90;;;;;;5077476;28;20107;-71
2023/12/31 04:25:41;;;;;;;142.40;85.38;;;3.70;99.90;;;;;;5079840;28;20309;-73
2023/12/31 04:28:09;;;;;;;131.00;84.63;;;3.70;99.90;;;;;;5078370;28;20035;-71
2023/12/31 04:30:37;;;;;;;126.80;83.95;;;3.60;99.90;;;;;;5082325;28;20042;-71
2023/12/31 04:33:04;;;;;;;139.70;86.40;;;3.60;99.90;;;;;;5079251;28;20441;-70
2023/12/31 04:35:32;;;;;;;129.35;86.28;;;3.60;99.90;;;;;;5081586;28;20039;-71
2023/12/31 04:38:17;;;;;;;141.07;86.75;;;3.60;99.90;;;;;;5082204;28;20400;-72
2023/12/31 04:40:44;;;;;;;142.63;89.93;;;3.60;99.90;;;;;;5072771;28;20051;-73
2023/12/31 04:43:11;;;;;;;141.23;89.63;;;3.60;99.90;;;;;;5082095;28;20498;-71
2023/12/31 04:45:39;;;;;;;135.75;87.60;;;3.60;99.90;;;;;;5081860;28;20045;-72
2023/12/31 04:48:06;;;;;;;151.68;93.20;;;3.50;99.90;;;;;;5079463;28;20032;-74
2023/12/31 04:50:33;;;;;;;137.80;87.68;;;3.40;99.90;;;;;;5081020;28;20040;-70
2023/12/31 04:53:01;;;;;;;141.43;89.78;;;3.30;99.90;;;;;;5079156;28;20033;-72
2023/12/31 04:55:29;;;;;;;138.00;85.22;;;3.20;99.90;;;;;;5084167;28;20409;-69
2023/12/31 04:57:56;;;;;;;127.55;85.32;;;3.40;99.90;;;;;;5077062;28;20032;-73
2023/12/31 05:00:23;;;;;;;136.35;86.80;;;3.40;99.90;;;;;;5080466;28;20173;-67
2023/12/31 05:02:51;;;;;;;135.85;88.05;;;3.20;99.90;;;;;;5084037;28;20119;-75
2023/12/31 05:05:18;;;;;;;143.45;90.05;;;3.20;99.90;;;;;;5079262;28;20129;-73
2023/12/31 05:07:45;;;;;;;151.05;92.68;;;3.10;99.90;;;;;;5078897;28;20043;-67
2023/12/31 05:10:13;;;;;;;141.40;88.63;;;3.10;99.90;;;;;;5073524;28;20375;-74
2023/12/31 05:12:40;;;;;;;140.07;89.93;;;3.20;99.90;;;;;;5077935;28;20047;-72
2023/12/31 05:15:07;;;;;;;144.88;87.47;;;3.20;99.90;;;;;;5079559;28;20056;-68
2023/12/31 05:17:35;;;;;;;149.27;86.68;;;3.10;99.90;;;;;;5081775;28;20434;-72
2023/12/31 05:20:02;;;;;;;144.95;86.47;;;3.00;99.90;;;;;;5080113;28;20036;-72
2023/12/31 05:22:29;;;;;;;142.25;88.20;;;3.00;99.90;;;;;;5081066;28;20429;-72
2023/12/31 05:24:57;;;;;;;144.02;88.95;;;3.10;99.90;;;;;;5082733;28;20043;-72
2023/12/31 05:27:24;;;;;;;141.90;90.57;;;3.10;99.90;;;;;;5081406;28;20377;-73
2023/12/31 05:29:51;;;;;;;142.68;89.25;;;2.80;99.90;;;;;;5072524;28;20078;-72
2023/12/31 05:32:36;;;;;;;142.05;89.15;;;2.80;99.90;;;;;;5079698;28;20024;-72
2023/12/31 05:35:03;;;;;;;163.35;96.07;;;2.80;99.90;;;;;;5077141;28;20036;-72
2023/12/31 05:37:31;;;;;;;150.20;94.43;;;2.60;99.90;;;;;;5080039;28;20108;-72
2023/12/31 05:39:58;;;;;;;138.23;88.53;;;2.30;99.90;;;;;;5082990;28;20093;-73
2023/12/31 05:42:27;;;;;;;143.82;88.70;;;2.20;99.90;;;;;;5079187;28;20024;-73
2023/12/31 05:44:54;;;;;;;136.55;83.80;;;2.30;99.90;;;;;;5080629;28;20062;-74
2023/12/31 05:47:22;;;;;;;120.05;80.00;;;2.40;99.90;;;;;;5081708;28;20042;-70
2023/12/31 05:50:09;;;;;;;113.60;73.57;;;2.40;99.90;;;;;;5076135;28;20040;-72
2023/12/31 05:52:37;;;;;;;118.32;75.78;;;2.50;99.90;;;;;;5079082;28;20041;-71
2023/12/31 05:55:04;;;;;;;117.10;74.63;;;2.40;99.90;;;;;;5080343;28;20143;-73
2023/12/31 05:57:32;;;;;;;124.07;77.65;;;2.50;99.90;;;;;;5081448;28;20356;-69
2023/12/31 06:00:00;;;;;;;133.32;79.65;;;2.50;99.90;;;;;;5080063;28;20123;-72
2023/12/31 06:02:28;;;;;;;126.55;75.75;;;2.60;99.90;;;;;;5077306;28;20032;-69
2023/12/31 06:04:55;;;;;;;116.97;73.47;;;2.60;99.90;;;;;;5077048;28;20044;-71
2023/12/31 06:07:23;;;;;;;116.22;72.00;;;2.40;99.90;;;;;;5074907;28;20041;-74
2023/12/31 06:09:50;;;;;;;109.53;69.82;;;2.40;99.90;;;;;;5077204;28;20036;-71
2023/12/31 06:12:17;;;;;;;121.63;74.85;;;2.40;99.90;;;;;;5080462;28;20514;-74
2023/12/31 06:14:45;;;;;;;114.00;71.28;;;2.30;99.90;;;;;;5074223;28;20040;-73
2023/12/31 06:17:12;;;;;;;121.22;70.70;;;2.40;99.90;;;;;;5082289;28;20035;-74
2023/12/31 06:19:40;;;;;;;119.82;69.65;;;2.50;99.90;;;;;;5076412;28;20048;-74
2023/12/31 06:22:07;;;;;;;121.20;71.10;;;2.60;99.90;;;;;;5077891;28;20033;-72
2023/12/31 06:24:35;;;;;;;117.15;69.80;;;2.60;99.90;;;;;;5079553;28;20029;-72
2023/12/31 06:27:02;;;;;;;107.63;69.57;;;2.70;99.90;;;;;;5080439;28;20036;-74
2023/12/31 06:29:29;;;;;;;114.95;71.20;;;2.80;99.90;;;;;;5077869;28;20382;-73
2023/12/31 06:31:57;;;;;;;109.90;69.20;;;2.80;99.90;;;;;;5080403;28;20064;-68
2023/12/31 06:34:24;;;;;;;113.43;69.22;;;2.80;99.90;;;;;;5077274;28;20036;-73
2023/12/31 06:36:51;;;;;;;108.63;67.18;;;3.00;99.90;;;;;;5079746;28;20086;-73
2023/12/31 06:39:18;;;;;;;106.93;67.40;;;3.00;99.90;;;;;;5080414;28;20037;-70
2023/12/31 06:41:46;;;;;;;106.65;67.40;;;3.00;99.90;;;;;;5073535;28;20123;-73
2023/12/31 06:44:13;;;;;;;104.10;64.15;;;3.10;99.90;;;;;;5082032;28;20062;-73
2023/12/31 06:46:40;;;;;;;114.22;65.85;;;3.10;99.90;;;;;;5078565;28;20123;-74
2023/12/31 06:49:08;;;;;;;95.10;59.75;;;3.10;99.90;;;;;;5078825;28;20032;-72
2023/12/31 06:51:35;;;;;;;107.05;66.18;;;3.10;99.90;;;;;;5077841;28;20024;-71
2023/12/31 06:54:02;;;;;;;110.90;65.45;;;3.20;99.90;;;;;;5078963;28;20119;-71
2023/12/31 06:56:30;;;;;;;104.47;63.10;;;3.20;99.90;;;;;;5081607;28;20052;-75
2023/12/31 06:58:57;;;;;;;105.25;63.42;;;3.30;99.90;;;;;;5079318;28;20132;-74
2023/12/31 07:01:24;;;;;;;108.55;65.57;;;3.20;99.90;;;;;;5079637;28;20179;-75
2023/12/31 07:03:52;;;;;;;108.03;68.65;;;3.20;99.90;;;;;;5080120;28;20088;-69
2023/12/31 07:06:19;;;;;;;103.50;65.65;;;3.30;99.90;;;;;;5077921;28;20486;-72
2023/12/31 07:08:46;;;;;;;103.53;66.65;;;3.30;99.90;;;;;;5072775;28;20044;-68
2023/12/31 07:11:15;;;;;;;97.75;66.35;;;3.50;99.90;;;;;;5081120;28;20037;-72
2023/12/31 07:13:42;;;;;;;100.35;67.25;;;3.50;99.90;;;;;;5076773;28;20044;-74
2023/12/31 07:16:10;;;;;;;100.60;67.18;;;3.30;99.90;;;;;;5079787;28;20056;-74
2023/12/31 07:18:37;;;;;;;104.05;72.43;;;3.40;99.90;;;;;;5080469;28;20028;-73
2023/12/31 07:21:05;;;;;;;107.15;72.43;;;3.40;99.90;;;;;;5078479;28;20035;-74
2023/12/31 07:23:33;;;;;;;98.57;67.57;;;3.30;99.90;;;;;;5077239;28;20032;-72
2023/12/31 07:26:00;;;;;;;101.88;68.85;;;3.30;99.90;;;;;;5079006;28;20103;-72
2023/12/31 07:28:28;;;;;;;99.43;67.55;;;3.50;99.90;;;;;;5074166;28;20040;-74
2023/12/31 07:30:55;;;;;;;108.38;71.13;;;3.50;99.90;;;;;;5095624;28;20375;-71
2023/12/31 07:33:22;;;;;;;112.97;72.30;;;3.60;99.90;;;;;;5080920;28;20039;-74
2023/12/31 07:35:49;;;;;;;106.43;72.38;;;3.70;99.90;;;;;;5081990;28;20054;-74
2023/12/31 07:38:17;;;;;;;114.18;76.53;;;3.80;99.90;;;;;;5076785;28;20038;-73
2023/12/31 07:40:44;;;;;;;116.07;73.78;;;3.80;99.90;;;;;;5080551;28;20028;-74
2023/12/31 07:43:11;;;;;;;128.18;77.63;;;3.80;99.90;;;;;;5081940;28;20386;-68
2023/12/31 07:45:39;;;;;;;117.22;78.50;;;3.60;99.90;;;;;;5084364;28;20055;-71
2023/12/31 07:48:09;;;;;;;117.70;71.72;;;3.70;99.90;;;;;;5082121;28;20031;-75
2023/12/31 07:50:36;;;;;;;106.38;69.13;;;3.60;99.90;;;;;;5081705;28;20047;-73
2023/12/31 07:53:03;;;;;;;89.72;62.17;;;3.90;99.90;;;;;;5080812;28;20104;-72
2023/12/31 07:55:31;;;;;;;91.20;57.25;;;4.00;99.90;;;;;;5082638;28;20048;-74
2023/12/31 07:57:58;;;;;;;81.13;54.55;;;4.00;99.90;;;;;;5083472;28;20025;-72
2023/12/31 08:00:26;;;;;;;83.30;54.83;;;4.30;99.90;;;;;;5081185;28;20060;-70
2023/12/31 08:02:53;;;;;;;68.65;47.95;;;4.40;99.90;;;;;;5077275;28;20437;-75
2023/12/31 08:05:20;;;;;;;67.55;47.15;;;4.60;99.90;;;;;;5080260;28;20119;-75
2023/12/31 08:07:47;;;;;;;63.90;46.15;;;4.80;99.90;;;;;;5080424;28;20058;-75
2023/12/31 08:10:15;;;;;;;61.85;44.10;;;4.50;99.90;;;;;;5081581;28;20414;-72
2023/12/31 08:12:42;;;;;;;62.38;44.22;;;5.00;99.90;;;;;;5082180;28;20024;-75
2023/12/31 08:15:10;;;;;;;61.47;43.03;;;5.30;99.90;;;;;;5079380;28;20078;-74
2023/12/31 08:17:37;;;;;;;59.97;41.92;;;5.50;99.90;;;;;;5083052;28;20110;-74
2023/12/31 08:20:05;;;;;;;59.50;42.60;;;5.50;99.90;;;;;;5080069;28;20456;-74
2023/12/31 08:22:32;;;;;;;61.15;42.58;;;5.50;99.90;;;;;;5080258;28;20032;-72
2023/12/31 08:25:00;;;;;;;60.72;42.22;;;5.30;99.90;;;;;;5082521;28;20052;-74
2023/12/31 08:27:28;;;;;;;67.75;47.58;;;5.00;99.90;;;;;;5081035;28;20034;-74
2023/12/31 08:29:56;;;;;;;74.95;49.97;;;5.20;99.90;;;;;;5078638;28;20111;-74
2023/12/31 08:32:28;;;;;;;79.68;51.08;;;5.10;99.90;;;;;;5079964;28;20055;-72
2023/12/31 08:34:56;;;;;;;75.22;50.95;;;4.90;99.90;;;;;;5082029;28;20047;-69
2023/12/31 08:37:23;;;;;;;80.57;53.47;;;4.90;99.90;;;;;;5080749;28;20032;-72
2023/12/31 08:39:50;;;;;;;82.78;53.35;;;4.90;99.90;;;;;;5075646;28;20044;-74
2023/12/31 08:42:18;;;;;;;89.05;56.42;;;5.00;99.90;;;;;;5075580;28;20371;-73
2023/12/31 08:44:45;;;;;;;132.30;81.15;;;5.10;99.90;;;;;;5081789;28;20064;-70
2023/12/31 08:47:31;;;;;;;117.70;70.32;;;5.30;99.90;;;;;;5079159;28;20039;-68
2023/12/31 08:49:59;;;;;;;167.07;92.85;;;5.50;99.90;;;;;;5083231;28;20042;-74
2023/12/31 08:52:26;;;;;;;147.02;90.30;;;5.60;99.90;;;;;;5077216;28;20555;-72
2023/12/31 08:54:53;;;;;;;169.30;101.53;;;6.00;99.90;;;;;;5080452;28;20051;-73
2023/12/31 08:57:20;;;;;;;131.68;82.60;;;6.60;99.90;;;;;;5076740;28;20028;-72
2023/12/31 08:59:48;;;;;;;87.68;61.85;;;6.60;99.90;;;;;;5079310;28;20032;-71
2023/12/31 09:02:15;;;;;;;85.80;57.60;;;6.60;99.90;;;;;;5078078;28;20116;-66
2023/12/31 09:04:42;;;;;;;84.82;56.13;;;6.60;99.90;;;;;;5079962;28;20048;-71
2023/12/31 09:07:09;;;;;;;77.78;53.05;;;6.80;99.90;;;;;;5078135;28;20037;-72
2023/12/31 09:09:37;;;;;;;82.78;57.13;;;7.00;99.90;;;;;;5079768;28;20081;-72
2023/12/31 09:12:04;;;;;;;82.35;56.03;;;7.10;99.90;;;;;;5082059;28;20058;-71
2023/12/31 09:14:32;;;;;;;81.55;56.60;;;7.40;99.90;;;;;;5077260;28;20458;-66
2023/12/31 09:16:59;;;;;;;81.55;56.55;;;7.80;99.90;;;;;;5076848;28;20125;-72
2023/12/31 09:19:26;;;;;;;81.55;57.10;;;7.90;99.90;;;;;;5080320;28;20032;-73
2023/12/31 09:21:54;;;;;;;82.88;58.97;;;8.00;99.90;;;;;;5076904;28;20126;-70
2023/12/31 09:24:21;;;;;;;84.30;57.05;;;8.20;99.90;;;;;;5080743;28;20040;-72
2023/12/31 09:26:48;;;;;;;78.80;55.08;;;8.20;99.90;;;;;;5072230;28;20037;-69
2023/12/31 09:29:17;;;;;;;83.03;58.17;;;8.00;99.90;;;;;;5076450;28;20063;-69
2023/12/31 09:31:44;;;;;;;88.45;59.25;;;7.90;99.90;;;;;;5080401;28;20059;-71
2023/12/31 09:34:11;;;;;;;82.35;56.85;;;7.60;99.90;;;;;;5074269;28;20036;-72
2023/12/31 09:36:38;;;;;;;106.43;69.47;;;7.70;99.90;;;;;;5081086;28;20039;-69
2023/12/31 09:39:06;;;;;;;218.57;131.07;;;8.10;99.90;;;;;;5076997;28;20305;-69
2023/12/31 09:41:36;;;;;;;94.40;67.15;;;8.40;99.90;;;;;;5076482;28;20040;-72
2023/12/31 09:44:04;;;;;;;89.03;61.20;;;8.10;99.90;;;;;;5076894;28;20560;-70
2023/12/31 09:46:37;;;;;;;91.70;62.72;;;8.10;99.90;;;;;;5077510;28;20042;-73
2023/12/31 09:49:06;;;;;;;93.22;62.67;;;8.40;99.90;;;;;;5078317;28;20356;-74
2023/12/31 09:51:34;;;;;;;100.80;64.47;;;8.60;99.90;;;;;;5078925;28;20044;-69
2023/12/31 09:54:04;;;;;;;94.00;61.35;;;8.80;99.90;;;;;;5076485;28;20038;-73
2023/12/31 09:56:33;;;;;;;91.07;62.85;;;8.90;99.90;;;;;;5077283;28;20064;-68
2023/12/31 09:59:02;;;;;;;102.47;65.97;;;9.20;99.90;;;;;;5076503;28;20489;-69
2023/12/31 10:01:35;;;;;;;99.25;63.85;;;9.80;99.90;;;;;;5076722;28;20394;-70
2023/12/31 10:04:03;;;;;;;103.63;64.38;;;10.40;99.90;;;;;;5079097;28;20036;-71
2023/12/31 10:06:32;;;;;;;90.93;59.30;;;10.20;99.90;;;;;;5074408;28;20115;-75
2023/12/31 10:09:00;;;;;;;88.47;61.80;;;9.60;99.90;;;;;;5075489;28;20119;-70
2023/12/31 10:11:28;;;;;;;92.03;60.10;;;9.80;99.90;;;;;;5079821;28;20032;-74
2023/12/31 10:13:57;;;;;;;83.22;57.83;;;10.20;99.90;;;;;;5076442;28;20048;-72
2023/12/31 10:16:34;;;;;;;90.95;59.25;;;10.60;99.90;;;;;;5076783;28;20036;-74
2023/12/31 10:19:02;;;;;;;90.88;63.22;;;11.00;99.90;;;;;;5077305;28;20069;-73
2023/12/31 10:21:29;;;;;;;86.88;62.33;;;11.10;99.20;;;;;;5073595;28;20048;-67
2023/12/31 10:23:56;;;;;;;92.38;63.67;;;10.90;99.20;;;;;;5077181;28;20446;-74
2023/12/31 10:26:24;;;;;;;89.95;62.17;;;11.20;99.40;;;;;;5080287;28;20368;-72
2023/12/31 10:28:52;;;;;;;94.07;63.78;;;11.00;98.90;;;;;;5074301;28;20040;-68
2023/12/31 10:31:19;;;;;;;146.77;92.32;;;10.90;99.10;;;;;;5073398;28;20033;-72
2023/12/31 10:33:47;;;;;;;118.95;79.63;;;11.70;99.90;;;;;;5079969;28;20028;-70
2023/12/31 10:36:21;;;;;;;107.65;70.30;;;12.30;99.30;;;;;;5077026;28;20043;-74
2023/12/31 10:38:51;;;;;;;90.57;63.10;;;12.40;97.90;;;;;;5076030;28;20085;-75
2023/12/31 10:41:24;;;;;;;87.97;60.22;;;12.30;96.80;;;;;;5081064;28;20086;-76
2023/12/31 10:43:53;;;;;;;83.88;58.13;;;12.20;97.20;;;;;;5071160;28;20414;-71
2023/12/31 10:46:24;;;;;;;82.60;56.67;;;12.10;96.70;;;;;;5077043;28;20093;-72
2023/12/31 10:49:03;;;;;;;85.25;56.15;;;12.00;96.70;;;;;;5070458;28;20037;-76
2023/12/31 10:51:35;;;;;;;90.70;56.97;;;11.70;96.90;;;;;;5076029;28;20120;-74
2023/12/31 10:54:06;;;;;;;87.43;56.15;;;11.90;97.00;;;;;;5077372;28;20044;-75
2023/12/31 10:56:36;;;;;;;88.40;58.35;;;11.30;96.90;;;;;;5080426;28;20031;-75
2023/12/31 10:59:05;;;;;;;89.60;55.97;;;11.00;97.60;;;;;;5078540;28;20516;-74
2023/12/31 11:01:33;;;;;;;87.13;57.83;;;11.20;97.60;;;;;;5081077;28;20454;-70
2023/12/31 11:04:03;;;;;;;92.03;58.45;;;11.10;97.60;;;;;;5079520;28;20044;-72
2023/12/31 11:06:32;;;;;;;90.37;58.90;;;11.60;97.60;;;;;;5078460;28;20521;-71
2023/12/31 11:08:59;;;;;;;118.72;75.88;;;13.60;95.70;;;;;;5082913;28;20384;-72
2023/12/31 11:11:27;;;;;;;155.50;98.53;;;16.80;92.10;;;;;;5084486;28;20138;-71
2023/12/31 11:13:57;;;;;;;152.52;97.00;;;19.00;82.60;;;;;;5076277;28;20052;-77
2023/12/31 11:16:40;;;;;;;151.68;97.47;;;19.60;77.00;;;;;;5079160;28;20124;-74
2023/12/31 11:19:07;;;;;;;203.13;131.18;;;20.90;73.40;;;;;;5083418;28;20029;-73
2023/12/31 11:22:06;;;;;;;82.50;61.83;;;21.60;68.00;;;;;;5077273;28;20031;-68
2023/12/31 11:24:34;;;;;;;74.40;53.88;;;20.90;64.50;;;;;;5080045;28;20040;-75
2023/12/31 11:27:31;;;;;;;63.67;50.38;;;20.70;65.50;;;;;;5077057;28;20443;-70
2023/12/31 11:29:58;;;;;;;71.55;51.78;;;21.10;63.80;;;;;;5067753;28;20052;-73
2023/12/31 11:32:27;;;;;;;68.00;50.13;;;20.80;63.90;;;;;;5074102;28;20036;-73
2023/12/31 11:34:54;;;;;;;72.43;52.95;;;19.90;65.00;;;;;;5082942;28;20129;-75
2023/12/31 11:37:23;;;;;;;72.78;54.33;;;20.00;65.10;;;;;;5090040;28;20111;-73
2023/12/31 11:39:54;;;;;;;79.20;55.25;;;18.00;67.70;;;;;;5076588;28;20035;-76
2023/12/31 11:42:25;;;;;;;70.32;51.22;;;15.90;73.80;;;;;;5075072;28;20465;-74
2023/12/31 11:44:53;;;;;;;71.03;47.35;;;15.00;77.20;;;;;;5076398;28;20040;-77
2023/12/31 11:47:22;;;;;;;70.00;47.65;;;13.80;81.50;;;;;;5071660;28;20915;-69
2023/12/31 11:49:54;;;;;;;78.47;46.85;;;13.70;82.10;;;;;;5078582;28;20039;-74
2023/12/31 11:52:36;;;;;;;73.47;45.83;;;13.80;82.70;;;;;;5073485;28;20450;-72
2023/12/31 11:55:09;;;;;;;72.03;44.65;;;13.90;83.00;;;;;;5069590;28;20032;-72
2023/12/31 11:57:36;;;;;;;79.25;46.70;;;14.30;81.70;;;;;;5069880;28;20107;-71
2023/12/31 12:00:08;;;;;;;71.60;44.13;;;14.00;82.80;;;;;;5070255;28;20137;-75
2023/12/31 12:02:37;;;;;;;69.68;41.80;;;14.40;82.20;;;;;;5080681;28;20439;-76
2023/12/31 12:05:05;;;;;;;67.20;40.17;;;14.60;80.60;;;;;;5081723;28;20025;-74
2023/12/31 12:07:32;;;;;;;74.10;40.67;;;15.40;80.00;;;;;;5081772;28;20398;-68
2023/12/31 12:10:00;;;;;;;83.05;50.88;;;17.60;76.20;;;;;;5077687;28;20057;-74
2023/12/31 12:12:27;;;;;;;72.80;46.22;;;20.70;71.30;;;;;;5080621;28;20046;-73
2023/12/31 12:14:55;;;;;;;67.88;42.80;;;22.30;66.00;;;;;;5081052;28;20108;-67
2023/12/31 12:17:28;;;;;;;61.85;40.90;;;23.30;62.60;;;;;;5076079;28;20708;-73
2023/12/31 12:19:56;;;;;;;113.65;71.63;;;23.30;61.70;;;;;;5077522;28;20025;-67
2023/12/31 12:22:25;;;;;;;131.95;81.35;;;22.70;62.20;;;;;;5073149;28;20048;-73
2023/12/31 12:24:52;;;;;;;74.75;47.03;;;24.00;60.40;;;;;;5076140;28;20043;-71
2023/12/31 12:27:20;;;;;;;165.80;99.55;;;24.10;58.40;;;;;;5082878;28;20438;-72
2023/12/31 12:29:48;;;;;;;178.88;109.10;;;24.50;57.20;;;;;;5075770;28;20109;-70
2023/12/31 12:32:18;;;;;;;73.47;50.47;;;24.10;57.40;;;;;;5078731;28;20036;-72
2023/12/31 12:34:49;;;;;;;59.85;43.45;;;23.90;58.20;;;;;;5079423;28;20048;-77